Time;durP1;ratioP1;P1;durP2;ratioP2;P2;SDS_P1;SDS_P2;PMS_P1;PMS_P2;Temp;Humidity;BMP_temperature;BMP_pressure;BME280_temperature;BME280_humidity;BME280_pressure;Samples;Min_cycle;Max_cycle;Signal;HPM_P1;HPM_P2
2021/03/10 00:01:02;;;;;;;97.63;48.30;;;2.60;99.90;;;;;;4980764;28;20220;-62
2021/03/10 00:03:29;;;;;;;100.27;48.53;;;2.70;99.90;;;;;;4977237;28;20658;-63
2021/03/10 00:05:55;;;;;;;108.67;51.83;;;2.70;99.90;;;;;;4976085;28;20421;-63
2021/03/10 00:08:21;;;;;;;105.63;50.37;;;2.80;99.90;;;;;;4984907;28;20626;-64
2021/03/10 00:10:48;;;;;;;115.50;52.60;;;2.80;99.90;;;;;;4978272;28;20671;-63
2021/03/10 00:13:14;;;;;;;113.73;52.87;;;2.90;99.90;;;;;;4974819;28;20212;-64
2021/03/10 00:15:42;;;;;;;123.10;55.13;;;2.90;99.90;;;;;;4975881;28;20606;-67
2021/03/10 00:18:08;;;;;;;121.10;55.03;;;3.00;99.90;;;;;;4974928;28;20228;-63
2021/03/10 00:20:35;;;;;;;123.40;53.70;;;3.10;99.90;;;;;;4975607;28;20233;-62
2021/03/10 00:23:01;;;;;;;115.23;56.47;;;3.20;99.90;;;;;;4973689;28;20204;-63
2021/03/10 00:25:28;;;;;;;125.67;58.90;;;3.20;99.90;;;;;;4973898;28;20746;-69
2021/03/10 00:27:54;;;;;;;126.27;58.83;;;3.20;99.90;;;;;;4974052;28;20204;-63
2021/03/10 00:30:21;;;;;;;132.47;58.63;;;3.30;99.90;;;;;;4976663;28;20224;-62
2021/03/10 00:32:49;;;;;;;125.80;59.47;;;3.30;99.90;;;;;;4978227;28;20300;-64
2021/03/10 00:35:15;;;;;;;127.63;60.23;;;3.40;99.90;;;;;;4976144;28;20412;-65
2021/03/10 00:37:41;;;;;;;132.23;60.80;;;3.40;99.90;;;;;;4978124;28;20201;-64
2021/03/10 00:40:09;;;;;;;139.33;62.57;;;3.40;99.90;;;;;;4975157;28;20213;-61
2021/03/10 00:42:35;;;;;;;131.80;61.80;;;3.50;99.90;;;;;;4974384;28;20208;-65
2021/03/10 00:45:02;;;;;;;150.47;65.57;;;3.60;99.90;;;;;;4974482;28;20229;-66
2021/03/10 00:47:28;;;;;;;141.93;64.50;;;3.60;99.90;;;;;;4974811;28;20429;-62
2021/03/10 00:49:57;;;;;;;138.10;65.47;;;3.60;99.90;;;;;;4975688;28;20837;-62
2021/03/10 00:52:24;;;;;;;143.03;64.73;;;3.70;99.90;;;;;;4977910;28;20237;-61
2021/03/10 00:54:50;;;;;;;138.27;64.10;;;3.80;99.90;;;;;;4978448;28;20364;-66
2021/03/10 00:57:16;;;;;;;134.80;65.40;;;3.80;99.90;;;;;;4976573;28;22350;-64
2021/03/10 00:59:43;;;;;;;140.57;67.23;;;3.80;99.90;;;;;;4987478;28;20608;-61
2021/03/10 01:02:09;;;;;;;136.33;66.47;;;3.80;99.90;;;;;;4977276;28;20331;-65
2021/03/10 01:04:36;;;;;;;138.33;65.40;;;3.90;99.90;;;;;;4982487;28;20734;-62
2021/03/10 01:07:03;;;;;;;134.27;65.97;;;3.90;99.90;;;;;;4974009;28;20205;-66
2021/03/10 01:09:29;;;;;;;141.63;67.77;;;3.90;99.90;;;;;;4972394;28;20348;-61
2021/03/10 01:11:56;;;;;;;143.23;65.33;;;3.90;99.90;;;;;;4974424;28;20233;-62
2021/03/10 01:14:23;;;;;;;134.10;66.07;;;3.90;99.90;;;;;;4975205;28;20296;-63
2021/03/10 01:16:49;;;;;;;133.27;64.37;;;4.00;99.90;;;;;;4975106;28;20674;-63
2021/03/10 01:19:16;;;;;;;132.07;63.77;;;4.00;99.90;;;;;;4976385;28;20296;-62
2021/03/10 01:21:42;;;;;;;127.20;63.43;;;4.00;99.90;;;;;;4973470;28;20726;-62
2021/03/10 01:24:10;;;;;;;132.57;64.07;;;4.00;99.90;;;;;;4974128;28;20209;-61
2021/03/10 01:26:37;;;;;;;132.90;62.33;;;4.00;99.90;;;;;;4973022;28;20318;-62
2021/03/10 01:29:03;;;;;;;130.80;61.23;;;3.90;99.90;;;;;;4975515;28;20224;-62
2021/03/10 01:31:30;;;;;;;128.37;61.90;;;3.90;99.90;;;;;;4979473;28;20233;-62
2021/03/10 01:33:56;;;;;;;117.87;59.53;;;3.80;99.90;;;;;;4976108;28;20230;-64
2021/03/10 01:36:23;;;;;;;126.03;59.50;;;3.80;99.90;;;;;;4977120;28;20260;-63
2021/03/10 01:38:49;;;;;;;123.70;57.93;;;3.80;99.90;;;;;;4973683;28;20243;-60
2021/03/10 01:41:16;;;;;;;115.53;56.90;;;3.80;99.90;;;;;;4973119;28;20296;-64
2021/03/10 01:43:43;;;;;;;115.37;56.20;;;3.80;99.90;;;;;;4974579;28;20300;-62
2021/03/10 01:46:09;;;;;;;114.20;56.97;;;3.80;99.90;;;;;;4975513;28;20328;-62
2021/03/10 01:48:36;;;;;;;115.97;56.97;;;3.80;99.90;;;;;;4975553;28;20227;-62
2021/03/10 01:51:04;;;;;;;113.63;56.70;;;3.80;99.90;;;;;;4973605;28;20316;-63
2021/03/10 01:53:31;;;;;;;121.27;56.60;;;3.70;99.90;;;;;;4974265;28;20206;-62
2021/03/10 01:55:58;;;;;;;110.23;53.83;;;3.70;99.90;;;;;;4977625;28;20212;-62
2021/03/10 01:58:26;;;;;;;105.90;55.57;;;3.70;99.90;;;;;;4979074;28;20654;-62
2021/03/10 02:00:53;;;;;;;108.50;52.23;;;3.70;99.90;;;;;;4981182;28;20225;-63
2021/03/10 02:03:19;;;;;;;108.23;52.87;;;3.70;99.90;;;;;;4983902;28;20201;-64
2021/03/10 02:05:46;;;;;;;110.37;53.30;;;3.70;99.90;;;;;;4981805;28;20339;-63
2021/03/10 02:08:34;;;;;;;136.97;68.97;;;3.70;99.90;;;;;;4979251;28;20412;-64
2021/03/10 02:11:12;;;;;;;106.67;54.43;;;3.70;99.90;;;;;;4973479;28;20315;-60
2021/03/10 02:13:50;;;;;;;100.67;53.83;;;3.70;99.90;;;;;;4975593;28;20213;-61
2021/03/10 02:16:24;;;;;;;101.07;52.73;;;3.60;99.90;;;;;;4980916;28;20323;-62
2021/03/10 02:19:01;;;;;;;100.33;49.83;;;3.60;99.90;;;;;;4982312;28;20194;-66
2021/03/10 02:21:37;;;;;;;105.43;52.30;;;3.60;99.90;;;;;;4979922;28;20284;-66
2021/03/10 02:24:20;;;;;;;99.13;49.93;;;3.50;99.90;;;;;;4981591;28;20208;-65
2021/03/10 02:27:10;;;;;;;98.67;50.20;;;3.50;99.90;;;;;;4983556;28;20241;-63
2021/03/10 02:29:39;;;;;;;99.20;48.20;;;3.50;99.90;;;;;;4981252;28;20296;-63
2021/03/10 02:32:06;;;;;;;87.73;47.03;;;3.40;99.90;;;;;;4977362;28;21035;-62
2021/03/10 02:34:33;;;;;;;91.37;46.67;;;3.40;99.90;;;;;;4986085;28;20284;-62
2021/03/10 02:37:02;;;;;;;95.20;47.37;;;3.40;99.90;;;;;;4978806;28;20324;-63
2021/03/10 02:39:30;;;;;;;90.70;47.00;;;3.40;99.90;;;;;;4976644;28;20259;-62
2021/03/10 02:41:56;;;;;;;90.97;46.77;;;3.40;99.90;;;;;;4977497;28;20296;-63
2021/03/10 02:44:24;;;;;;;88.93;47.03;;;3.40;99.90;;;;;;4975181;28;20678;-62
2021/03/10 02:46:52;;;;;;;88.40;47.37;;;3.40;99.90;;;;;;4979772;28;20296;-63
2021/03/10 02:49:19;;;;;;;89.67;45.37;;;3.40;99.90;;;;;;4981102;28;20221;-62
2021/03/10 02:51:47;;;;;;;89.43;47.37;;;3.30;99.90;;;;;;4976782;28;20292;-62
2021/03/10 02:54:15;;;;;;;89.57;46.57;;;3.30;99.90;;;;;;4978738;28;20288;-62
2021/03/10 02:56:42;;;;;;;90.57;46.07;;;3.30;99.90;;;;;;4979500;28;20247;-63
2021/03/10 02:59:09;;;;;;;86.73;46.13;;;3.20;99.90;;;;;;4977282;28;20287;-64
2021/03/10 03:01:35;;;;;;;90.63;45.97;;;3.20;99.90;;;;;;4977337;28;20670;-70
2021/03/10 03:04:03;;;;;;;80.93;46.00;;;3.30;99.90;;;;;;4979816;28;20962;-67
2021/03/10 03:06:29;;;;;;;84.77;45.07;;;3.30;99.90;;;;;;4979160;28;20209;-64
2021/03/10 03:08:56;;;;;;;83.10;46.00;;;3.40;99.90;;;;;;4978168;28;20339;-63
2021/03/10 03:11:23;;;;;;;84.00;42.97;;;3.40;99.90;;;;;;4977261;28;20304;-63
2021/03/10 03:13:51;;;;;;;86.93;44.53;;;3.40;99.90;;;;;;4977050;28;21049;-67
2021/03/10 03:16:18;;;;;;;83.33;43.53;;;3.40;99.90;;;;;;4980610;28;20315;-66
2021/03/10 03:18:45;;;;;;;78.90;43.37;;;3.50;99.90;;;;;;4982047;28;20212;-66
2021/03/10 03:21:13;;;;;;;89.67;44.67;;;3.50;99.90;;;;;;4982149;28;20292;-69
2021/03/10 03:23:41;;;;;;;80.07;44.97;;;3.50;99.90;;;;;;4990890;28;20355;-63
2021/03/10 03:26:08;;;;;;;78.07;43.27;;;3.50;99.90;;;;;;4989079;28;20288;-63
2021/03/10 03:28:35;;;;;;;84.73;45.23;;;3.50;99.90;;;;;;4992684;28;20236;-62
2021/03/10 03:31:04;;;;;;;79.43;43.37;;;3.50;99.90;;;;;;4988030;28;20741;-62
2021/03/10 03:33:31;;;;;;;80.73;44.70;;;3.50;99.90;;;;;;4987303;28;20242;-62
2021/03/10 03:35:58;;;;;;;89.87;47.97;;;3.50;99.90;;;;;;4988277;28;20216;-63
2021/03/10 03:38:27;;;;;;;87.57;45.60;;;3.40;99.90;;;;;;4987747;28;20297;-62
2021/03/10 03:40:55;;;;;;;82.50;42.40;;;3.40;99.90;;;;;;4988616;28;20217;-63
2021/03/10 03:43:24;;;;;;;83.40;43.43;;;3.40;99.90;;;;;;4991421;28;20284;-63
2021/03/10 03:45:51;;;;;;;78.50;42.00;;;3.40;99.90;;;;;;4987470;28;20777;-63
2021/03/10 03:48:19;;;;;;;78.83;41.93;;;3.40;99.90;;;;;;4990720;28;20292;-67
2021/03/10 03:50:46;;;;;;;87.53;43.50;;;3.50;99.90;;;;;;4987867;28;20315;-63
2021/03/10 03:53:13;;;;;;;81.97;42.97;;;3.50;99.90;;;;;;4987552;28;20196;-67
2021/03/10 03:55:41;;;;;;;81.57;42.17;;;3.50;99.90;;;;;;4986020;28;20205;-66
2021/03/10 03:58:07;;;;;;;78.17;41.10;;;3.40;99.90;;;;;;4989786;28;20216;-63
2021/03/10 04:00:34;;;;;;;85.37;43.03;;;3.40;99.90;;;;;;4987837;28;22144;-65
2021/03/10 04:03:01;;;;;;;78.07;40.27;;;3.40;99.90;;;;;;4988107;28;20206;-63
2021/03/10 04:05:27;;;;;;;85.47;42.17;;;3.50;99.90;;;;;;4989916;28;20348;-67
2021/03/10 04:07:56;;;;;;;80.53;40.77;;;3.50;99.90;;;;;;4988208;28;20686;-66
2021/03/10 04:10:24;;;;;;;77.40;39.93;;;3.50;99.90;;;;;;4988277;28;20232;-70
2021/03/10 04:12:51;;;;;;;86.77;40.27;;;3.50;99.90;;;;;;4988387;28;20228;-63
2021/03/10 04:15:19;;;;;;;76.07;39.67;;;3.50;99.90;;;;;;4988865;28;20292;-62
2021/03/10 04:17:45;;;;;;;74.93;37.93;;;3.60;99.90;;;;;;4987376;28;20316;-70
2021/03/10 04:20:14;;;;;;;75.80;39.47;;;3.60;99.90;;;;;;4987583;28;20677;-64
2021/03/10 04:22:40;;;;;;;76.53;38.93;;;3.60;99.90;;;;;;4986922;28;20229;-65
2021/03/10 04:25:08;;;;;;;81.87;40.57;;;3.60;99.90;;;;;;4987643;28;20244;-68
2021/03/10 04:27:35;;;;;;;82.80;39.13;;;3.70;99.90;;;;;;4992050;28;20596;-63
2021/03/10 04:30:04;;;;;;;77.73;39.47;;;3.70;99.90;;;;;;4991566;28;20263;-66
2021/03/10 04:32:31;;;;;;;82.63;40.27;;;3.70;99.90;;;;;;4988151;28;20376;-63
2021/03/10 04:34:57;;;;;;;85.13;40.30;;;3.70;99.90;;;;;;4989902;28;20205;-65
2021/03/10 04:37:24;;;;;;;81.23;42.00;;;3.70;99.90;;;;;;4987479;28;22113;-63
2021/03/10 04:39:51;;;;;;;94.37;41.60;;;3.70;99.90;;;;;;4985205;28;20344;-62
2021/03/10 04:42:17;;;;;;;84.33;41.57;;;3.70;99.90;;;;;;4987716;28;20327;-63
2021/03/10 04:44:44;;;;;;;98.60;44.63;;;3.80;99.90;;;;;;4985837;28;20316;-62
2021/03/10 04:47:11;;;;;;;86.23;44.87;;;3.80;99.90;;;;;;4987910;28;20284;-63
2021/03/10 04:49:37;;;;;;;90.10;45.50;;;3.80;99.90;;;;;;4986542;28;21140;-64
2021/03/10 04:52:04;;;;;;;85.10;45.63;;;3.80;99.90;;;;;;4985198;28;20266;-63
2021/03/10 04:54:31;;;;;;;88.37;44.43;;;3.80;99.90;;;;;;4981175;28;20289;-67
2021/03/10 04:56:57;;;;;;;92.70;45.40;;;3.90;99.90;;;;;;4986756;28;21999;-63
2021/03/10 04:59:25;;;;;;;93.10;44.63;;;3.90;99.90;;;;;;4986450;28;20328;-64
2021/03/10 05:01:51;;;;;;;95.70;46.50;;;3.90;99.90;;;;;;4986127;28;20291;-65
2021/03/10 05:04:18;;;;;;;94.60;46.37;;;3.90;99.90;;;;;;4986788;28;20225;-67
2021/03/10 05:06:46;;;;;;;93.13;46.03;;;3.90;99.90;;;;;;4987544;28;20201;-63
2021/03/10 05:09:12;;;;;;;90.23;44.97;;;3.90;99.90;;;;;;4988620;28;20331;-63
2021/03/10 05:11:39;;;;;;;111.73;46.93;;;4.00;99.90;;;;;;4982462;28;21140;-64
2021/03/10 05:14:05;;;;;;;99.23;46.10;;;4.00;99.90;;;;;;4978959;28;20340;-63
2021/03/10 05:16:32;;;;;;;105.80;47.27;;;4.00;99.90;;;;;;4976897;28;20295;-66
2021/03/10 05:18:58;;;;;;;100.63;47.57;;;4.00;99.90;;;;;;4980915;28;20216;-68
2021/03/10 05:21:26;;;;;;;100.93;47.60;;;4.10;99.90;;;;;;4977447;28;21365;-61
2021/03/10 05:23:52;;;;;;;99.77;47.47;;;4.10;99.90;;;;;;4977479;28;20229;-65
2021/03/10 05:26:19;;;;;;;100.90;46.47;;;4.00;99.90;;;;;;4979940;28;20694;-63
2021/03/10 05:28:45;;;;;;;100.77;49.13;;;4.10;99.90;;;;;;4984198;28;20293;-67
2021/03/10 05:31:12;;;;;;;101.83;48.77;;;4.10;99.90;;;;;;4985173;28;20212;-63
2021/03/10 05:33:38;;;;;;;99.83;48.20;;;4.10;99.90;;;;;;4981293;28;20209;-66
2021/03/10 05:36:05;;;;;;;113.77;49.87;;;4.10;99.90;;;;;;4981072;28;20304;-66
2021/03/10 05:38:33;;;;;;;104.80;49.23;;;4.10;99.90;;;;;;4981678;28;20297;-69
2021/03/10 05:41:00;;;;;;;112.93;51.43;;;4.00;99.90;;;;;;4980427;28;22210;-66
2021/03/10 05:43:29;;;;;;;115.20;51.80;;;4.10;99.90;;;;;;4985177;28;20202;-68
2021/03/10 05:45:55;;;;;;;114.73;49.97;;;4.10;99.90;;;;;;4983944;28;20260;-65
2021/03/10 05:48:22;;;;;;;103.60;50.13;;;4.10;99.90;;;;;;4977738;28;20288;-63
2021/03/10 05:50:49;;;;;;;113.83;52.07;;;4.10;99.90;;;;;;4988444;28;20340;-69
2021/03/10 05:53:18;;;;;;;115.40;50.83;;;4.10;99.90;;;;;;4977377;28;20264;-67
2021/03/10 05:55:47;;;;;;;112.53;50.93;;;4.10;99.90;;;;;;4977490;28;20296;-68
2021/03/10 05:58:14;;;;;;;113.30;51.77;;;4.10;99.90;;;;;;4980228;28;20549;-66
2021/03/10 06:00:45;;;;;;;111.30;52.13;;;4.20;99.90;;;;;;4985171;28;20201;-66
2021/03/10 06:03:14;;;;;;;115.37;52.23;;;4.20;99.90;;;;;;4978336;28;20255;-70
2021/03/10 06:05:42;;;;;;;118.00;52.63;;;4.20;99.90;;;;;;4977083;28;21274;-64
2021/03/10 06:08:10;;;;;;;119.17;52.77;;;4.30;99.90;;;;;;4981689;28;20295;-67
2021/03/10 06:10:38;;;;;;;119.87;53.70;;;4.30;99.90;;;;;;4982643;28;20209;-70
2021/03/10 06:13:17;;;;;;;129.63;54.93;;;4.30;99.90;;;;;;4978389;28;20228;-66
2021/03/10 06:15:44;;;;;;;118.40;51.20;;;4.30;99.90;;;;;;4978401;28;20193;-70
2021/03/10 06:18:21;;;;;;;119.43;53.77;;;4.40;99.90;;;;;;4981296;28;20607;-70
2021/03/10 06:20:48;;;;;;;109.93;51.80;;;4.40;99.90;;;;;;4979060;28;20271;-68
2021/03/10 06:23:15;;;;;;;125.60;56.57;;;4.40;99.90;;;;;;4978628;28;20220;-64
2021/03/10 06:25:42;;;;;;;128.13;54.33;;;4.40;99.90;;;;;;4981496;28;20751;-67
2021/03/10 06:28:10;;;;;;;126.83;52.03;;;4.40;99.90;;;;;;4979216;28;22237;-65
2021/03/10 06:30:39;;;;;;;128.87;53.60;;;4.40;99.90;;;;;;4978596;28;20641;-66
2021/03/10 06:33:07;;;;;;;124.77;55.17;;;4.40;99.90;;;;;;4976225;28;20274;-66
2021/03/10 06:35:34;;;;;;;119.77;51.27;;;4.50;99.90;;;;;;4978065;28;20233;-65
2021/03/10 06:38:12;;;;;;;122.17;52.77;;;4.50;99.90;;;;;;4981084;28;20244;-69
2021/03/10 06:40:53;;;;;;;127.87;53.60;;;4.50;99.90;;;;;;4980700;28;20295;-69
2021/03/10 06:43:21;;;;;;;117.53;52.23;;;4.50;99.90;;;;;;4979995;28;20445;-67
2021/03/10 06:45:48;;;;;;;120.93;52.83;;;4.60;99.90;;;;;;4976543;28;20261;-66
2021/03/10 06:48:19;;;;;;;121.63;53.40;;;4.60;99.90;;;;;;4981094;28;20931;-65
2021/03/10 06:50:46;;;;;;;121.40;52.87;;;4.60;99.90;;;;;;4975508;28;20754;-67
2021/03/10 06:53:12;;;;;;;114.87;50.37;;;4.60;99.90;;;;;;4979140;28;20229;-70
2021/03/10 06:55:40;;;;;;;115.53;51.97;;;4.60;99.90;;;;;;4975999;28;20209;-68
2021/03/10 06:58:07;;;;;;;116.33;51.43;;;4.70;99.90;;;;;;4978622;28;20301;-68
2021/03/10 07:00:35;;;;;;;119.47;51.90;;;4.70;99.90;;;;;;4976740;28;20247;-62
2021/03/10 07:03:02;;;;;;;121.13;51.97;;;4.70;99.90;;;;;;4978895;28;20688;-66
2021/03/10 07:05:30;;;;;;;119.73;51.50;;;4.70;99.90;;;;;;4976738;28;20236;-65
2021/03/10 07:07:57;;;;;;;106.47;49.30;;;4.80;99.90;;;;;;4976791;28;20212;-71
2021/03/10 07:10:27;;;;;;;105.67;48.20;;;4.80;99.90;;;;;;4978665;28;20200;-69
2021/03/10 07:12:57;;;;;;;107.00;47.47;;;4.80;99.90;;;;;;4974512;28;20260;-65
2021/03/10 07:15:24;;;;;;;108.83;47.50;;;4.80;99.90;;;;;;4976578;28;20201;-71
2021/03/10 07:17:51;;;;;;;103.70;45.37;;;4.80;99.90;;;;;;4977228;28;20337;-67
2021/03/10 07:20:19;;;;;;;96.60;44.00;;;4.90;99.90;;;;;;4987789;28;20209;-65
2021/03/10 07:22:51;;;;;;;91.93;44.10;;;4.90;99.90;;;;;;4988399;28;20288;-62
2021/03/10 07:25:25;;;;;;;100.37;44.87;;;4.90;99.90;;;;;;4993754;28;20207;-65
2021/03/10 07:27:56;;;;;;;104.27;44.20;;;5.00;99.90;;;;;;4989996;28;20229;-69
2021/03/10 07:30:33;;;;;;;86.77;42.80;;;5.00;99.90;;;;;;4988797;28;20275;-62
2021/03/10 07:33:09;;;;;;;90.30;43.63;;;5.00;99.90;;;;;;4987665;28;20224;-63
2021/03/10 07:35:52;;;;;;;89.03;42.77;;;5.00;99.90;;;;;;4988540;28;20228;-63
2021/03/10 07:38:20;;;;;;;85.63;42.27;;;5.00;99.90;;;;;;4990102;28;20197;-63
2021/03/10 07:40:59;;;;;;;84.97;39.97;;;5.00;99.90;;;;;;4987445;28;20353;-63
2021/03/10 07:43:41;;;;;;;88.17;40.73;;;5.00;99.90;;;;;;4987859;28;20611;-60
2021/03/10 07:46:21;;;;;;;83.23;39.43;;;5.10;99.90;;;;;;4985472;28;20326;-63
2021/03/10 07:48:49;;;;;;;82.53;39.93;;;5.10;99.90;;;;;;4988604;28;20209;-63
2021/03/10 07:51:30;;;;;;;74.30;39.37;;;5.10;99.90;;;;;;4989918;28;20297;-61
2021/03/10 07:53:58;;;;;;;75.57;39.43;;;5.10;99.90;;;;;;4980957;28;20483;-62
2021/03/10 07:56:29;;;;;;;70.70;36.90;;;5.20;99.90;;;;;;4974579;28;20225;-67
2021/03/10 07:59:07;;;;;;;71.50;35.73;;;5.20;99.90;;;;;;4977647;28;20228;-60
2021/03/10 08:01:34;;;;;;;65.07;36.57;;;5.20;99.90;;;;;;4977061;28;20915;-65
2021/03/10 08:04:09;;;;;;;63.10;33.27;;;5.20;99.90;;;;;;4976469;28;22216;-70
2021/03/10 08:06:49;;;;;;;59.03;30.87;;;5.30;99.90;;;;;;4984779;28;20288;-66
2021/03/10 08:09:18;;;;;;;51.97;29.17;;;5.30;99.90;;;;;;4994227;28;20764;-62
2021/03/10 08:11:46;;;;;;;53.27;29.60;;;5.30;99.90;;;;;;4986848;28;20229;-69
2021/03/10 08:14:15;;;;;;;45.47;27.93;;;5.40;99.90;;;;;;4987473;28;20201;-68
2021/03/10 08:16:46;;;;;;;39.67;25.50;;;5.40;99.90;;;;;;4987607;28;20212;-67
2021/03/10 08:19:19;;;;;;;41.87;25.63;;;5.50;99.90;;;;;;4989346;28;20222;-62
2021/03/10 08:21:53;;;;;;;40.80;23.80;;;5.50;99.90;;;;;;4987544;28;20201;-61
2021/03/10 08:24:22;;;;;;;35.07;22.47;;;5.60;99.90;;;;;;4992164;28;20291;-62
2021/03/10 08:26:51;;;;;;;36.87;21.63;;;5.70;99.90;;;;;;4975597;28;20226;-68
2021/03/10 08:29:18;;;;;;;33.30;19.77;;;5.80;99.90;;;;;;4989156;28;20228;-61
2021/03/10 08:31:50;;;;;;;29.53;18.83;;;5.80;99.90;;;;;;4979597;28;20225;-65
2021/03/10 08:34:38;;;;;;;26.27;17.73;;;5.90;99.90;;;;;;5019008;28;20203;-66
2021/03/10 08:37:06;;;;;;;26.07;17.53;;;5.90;99.90;;;;;;5012775;28;20208;-66
2021/03/10 08:39:32;;;;;;;30.83;16.93;;;5.90;99.90;;;;;;5003906;28;20254;-64
2021/03/10 08:41:59;;;;;;;25.90;17.87;;;6.00;99.90;;;;;;5010477;28;20228;-64
2021/03/10 08:44:27;;;;;;;28.43;17.23;;;6.00;99.90;;;;;;4999967;28;20241;-64
2021/03/10 08:46:55;;;;;;;25.53;17.20;;;6.10;99.90;;;;;;4993051;28;20233;-68
2021/03/10 08:49:26;;;;;;;24.57;16.23;;;6.20;99.90;;;;;;4992968;28;20670;-65
2021/03/10 08:52:04;;;;;;;25.13;16.33;;;6.30;99.90;;;;;;5004420;28;20240;-64
2021/03/10 08:54:31;;;;;;;21.90;14.60;;;6.50;99.90;;;;;;4992757;28;20204;-65
2021/03/10 08:56:58;;;;;;;23.50;15.67;;;6.60;99.90;;;;;;4989362;28;20204;-68
2021/03/10 08:59:34;;;;;;;23.77;14.27;;;6.60;99.90;;;;;;4995511;28;20286;-70
2021/03/10 09:02:01;;;;;;;21.70;15.30;;;6.70;99.90;;;;;;5001997;28;20201;-69
2021/03/10 09:04:29;;;;;;;20.77;15.13;;;6.80;99.90;;;;;;4996741;28;20229;-68
2021/03/10 09:06:57;;;;;;;21.20;14.47;;;6.90;99.90;;;;;;5001024;28;20677;-67
2021/03/10 09:09:24;;;;;;;22.70;15.00;;;7.10;99.90;;;;;;4999537;28;20204;-67
2021/03/10 09:11:52;;;;;;;20.17;14.30;;;7.10;99.90;;;;;;5002363;28;20700;-76
2021/03/10 09:14:28;;;;;;;20.30;14.03;;;7.40;99.90;;;;;;4997348;28;20291;-64
2021/03/10 09:17:05;;;;;;;23.70;14.03;;;7.60;99.90;;;;;;4997452;28;20290;-62
2021/03/10 09:19:44;;;;;;;20.50;14.37;;;7.70;99.90;;;;;;4995670;28;20610;-67
2021/03/10 09:22:16;;;;;;;19.53;13.83;;;8.00;99.90;;;;;;5000552;28;20211;-64
2021/03/10 09:24:50;;;;;;;19.77;13.97;;;8.10;99.90;;;;;;4998297;28;20237;-65
2021/03/10 09:27:18;;;;;;;23.23;14.13;;;8.20;99.90;;;;;;4995803;28;20244;-61
2021/03/10 09:29:44;;;;;;;21.30;13.60;;;8.20;99.90;;;;;;4995243;28;20297;-63
2021/03/10 09:32:11;;;;;;;19.47;14.47;;;8.20;99.90;;;;;;4996377;28;20228;-63
2021/03/10 09:34:39;;;;;;;19.97;14.40;;;8.20;99.90;;;;;;5000786;28;20209;-66
2021/03/10 09:37:12;;;;;;;19.50;14.13;;;8.10;99.90;;;;;;5002525;28;20209;-66
2021/03/10 09:39:46;;;;;;;21.27;13.93;;;7.90;99.90;;;;;;5002373;28;20295;-62
2021/03/10 09:42:13;;;;;;;19.37;14.63;;;7.80;99.90;;;;;;5001558;28;20296;-62
2021/03/10 09:44:44;;;;;;;22.40;15.23;;;7.80;99.90;;;;;;4996291;28;20233;-64
2021/03/10 09:47:21;;;;;;;21.33;15.50;;;7.80;99.90;;;;;;4998089;28;20209;-64
2021/03/10 09:49:53;;;;;;;19.87;14.13;;;7.80;99.90;;;;;;5004888;28;20209;-60
2021/03/10 09:52:31;;;;;;;23.17;15.00;;;7.90;99.90;;;;;;5004887;28;20595;-61
2021/03/10 09:54:58;;;;;;;23.67;15.37;;;8.10;99.90;;;;;;5002084;28;20197;-64
2021/03/10 09:57:27;;;;;;;21.37;16.00;;;8.20;99.90;;;;;;5000644;28;20208;-66
2021/03/10 09:59:55;;;;;;;22.63;15.37;;;8.30;99.90;;;;;;5000006;28;20201;-62
2021/03/10 10:02:22;;;;;;;23.80;14.43;;;8.30;99.90;;;;;;4998057;28;20204;-64
2021/03/10 10:05:03;;;;;;;19.73;15.53;;;8.30;99.90;;;;;;4999318;28;20768;-62
2021/03/10 10:07:31;;;;;;;21.93;16.43;;;8.40;99.90;;;;;;4999496;28;20635;-66
2021/03/10 10:09:58;;;;;;;21.60;15.67;;;8.40;99.90;;;;;;5010448;28;20205;-61
2021/03/10 10:12:26;;;;;;;22.43;15.13;;;8.50;99.90;;;;;;5011406;28;20224;-65
2021/03/10 10:14:53;;;;;;;21.80;15.10;;;8.60;99.90;;;;;;5010681;28;20254;-63
2021/03/10 10:17:19;;;;;;;24.33;15.43;;;8.80;99.90;;;;;;5009122;28;20200;-63
2021/03/10 10:19:46;;;;;;;20.87;15.23;;;9.10;99.90;;;;;;5008500;28;20248;-66
2021/03/10 10:22:13;;;;;;;23.47;16.13;;;9.20;99.90;;;;;;5007446;28;20805;-63
2021/03/10 10:24:40;;;;;;;19.80;15.13;;;9.30;99.90;;;;;;5012425;28;20667;-63
2021/03/10 10:27:07;;;;;;;20.63;14.50;;;9.30;99.90;;;;;;5009791;28;20717;-64
2021/03/10 10:29:33;;;;;;;25.37;15.53;;;9.20;99.90;;;;;;5009727;28;20267;-66
2021/03/10 10:32:00;;;;;;;21.20;15.53;;;9.10;99.90;;;;;;5012450;28;20224;-65
2021/03/10 10:34:26;;;;;;;23.20;15.37;;;9.10;99.90;;;;;;5011986;28;20212;-64
2021/03/10 10:36:53;;;;;;;20.33;15.07;;;9.10;99.90;;;;;;5007723;28;20258;-61
2021/03/10 10:39:20;;;;;;;19.43;15.33;;;9.20;99.90;;;;;;5010394;28;20205;-60
2021/03/10 10:41:47;;;;;;;24.80;15.60;;;9.40;99.90;;;;;;4998509;28;20274;-62
2021/03/10 10:44:13;;;;;;;22.77;15.77;;;9.40;99.90;;;;;;4999428;28;20251;-64
2021/03/10 10:46:40;;;;;;;22.43;15.20;;;9.30;99.90;;;;;;5003244;28;20206;-62
2021/03/10 10:49:06;;;;;;;22.90;16.27;;;9.20;99.90;;;;;;5004042;28;20571;-63
2021/03/10 10:51:33;;;;;;;20.37;15.53;;;9.20;99.90;;;;;;4999557;28;20201;-69
2021/03/10 10:53:59;;;;;;;22.57;15.87;;;9.20;99.90;;;;;;5001345;28;20216;-62
2021/03/10 10:56:27;;;;;;;23.60;17.10;;;9.10;99.90;;;;;;5006035;28;20205;-61
2021/03/10 10:58:53;;;;;;;24.50;17.23;;;9.10;99.90;;;;;;5005556;28;20208;-72
2021/03/10 11:01:20;;;;;;;24.47;16.13;;;9.00;99.90;;;;;;5002968;28;20204;-64
2021/03/10 11:03:46;;;;;;;21.23;16.77;;;9.00;99.90;;;;;;5001922;28;20209;-61
2021/03/10 11:06:12;;;;;;;24.90;16.60;;;9.00;99.90;;;;;;5003476;28;20212;-62
2021/03/10 11:08:39;;;;;;;22.23;16.67;;;9.00;99.90;;;;;;5003501;28;20197;-62
2021/03/10 11:11:05;;;;;;;23.90;15.63;;;9.10;99.90;;;;;;5002245;28;20204;-59
2021/03/10 11:13:33;;;;;;;22.47;16.40;;;9.10;99.90;;;;;;5005184;28;20252;-65
2021/03/10 11:15:59;;;;;;;21.53;16.90;;;9.20;99.90;;;;;;5005372;28;20201;-60
2021/03/10 11:18:26;;;;;;;25.50;16.90;;;9.30;99.90;;;;;;5006020;28;20233;-63
2021/03/10 11:20:52;;;;;;;24.73;16.10;;;9.40;99.90;;;;;;5000738;28;20219;-63
2021/03/10 11:23:19;;;;;;;24.53;17.80;;;9.50;99.90;;;;;;5001837;28;20201;-62
2021/03/10 11:25:45;;;;;;;26.10;17.40;;;9.50;99.90;;;;;;4998408;28;20213;-62
2021/03/10 11:28:13;;;;;;;25.73;17.03;;;9.60;99.90;;;;;;5001252;28;20213;-66
2021/03/10 11:30:41;;;;;;;25.50;18.00;;;9.60;99.90;;;;;;5001460;28;20205;-66
2021/03/10 11:33:07;;;;;;;25.63;17.40;;;9.60;99.90;;;;;;5003646;28;20228;-69
2021/03/10 11:35:34;;;;;;;27.20;17.97;;;9.70;99.90;;;;;;5001001;28;20209;-68
2021/03/10 11:38:00;;;;;;;22.83;17.40;;;9.80;99.90;;;;;;5004483;28;20232;-62
2021/03/10 11:40:27;;;;;;;24.07;17.50;;;9.90;99.90;;;;;;5002521;28;20697;-68
2021/03/10 11:42:53;;;;;;;23.73;17.00;;;10.00;99.90;;;;;;5002652;28;20207;-68
2021/03/10 11:45:20;;;;;;;25.67;17.50;;;10.10;99.90;;;;;;5001780;28;20284;-68
2021/03/10 11:47:47;;;;;;;23.70;16.77;;;10.10;99.90;;;;;;5002704;28;20267;-62
2021/03/10 11:50:15;;;;;;;29.67;19.70;;;10.10;99.90;;;;;;5003567;28;20212;-65
2021/03/10 11:52:41;;;;;;;24.67;17.93;;;10.20;99.90;;;;;;5002863;28;20224;-69
2021/03/10 11:55:11;;;;;;;23.97;18.40;;;10.20;99.90;;;;;;5003678;28;20197;-66
2021/03/10 11:57:37;;;;;;;25.13;17.30;;;10.30;99.90;;;;;;4994081;28;20209;-68
2021/03/10 12:00:05;;;;;;;26.37;18.47;;;10.30;99.90;;;;;;5003072;28;20312;-67
2021/03/10 12:02:31;;;;;;;23.93;17.47;;;10.30;99.90;;;;;;4999810;28;20641;-65
2021/03/10 12:04:59;;;;;;;24.43;19.10;;;10.30;99.90;;;;;;5000032;28;20693;-62
2021/03/10 12:07:25;;;;;;;24.33;17.27;;;10.30;99.90;;;;;;4999577;28;20237;-63
2021/03/10 12:09:52;;;;;;;27.63;17.40;;;10.20;99.90;;;;;;5001639;28;20205;-65
2021/03/10 12:12:19;;;;;;;28.23;17.87;;;10.20;99.90;;;;;;5001845;28;20748;-64
2021/03/10 12:14:45;;;;;;;25.60;18.27;;;10.20;99.90;;;;;;4999254;28;20987;-64
2021/03/10 12:17:12;;;;;;;26.47;19.00;;;10.10;99.90;;;;;;5000918;28;20201;-66
2021/03/10 12:19:39;;;;;;;25.50;18.53;;;10.00;99.90;;;;;;4996744;28;20198;-68
2021/03/10 12:22:07;;;;;;;28.87;18.67;;;10.00;99.90;;;;;;5001800;28;20295;-67
2021/03/10 12:24:33;;;;;;;28.00;18.90;;;10.00;99.90;;;;;;5001711;28;20232;-63
2021/03/10 12:27:00;;;;;;;24.77;18.77;;;9.90;99.90;;;;;;4998442;28;20772;-64
2021/03/10 12:29:27;;;;;;;27.57;19.83;;;10.00;99.90;;;;;;5002015;28;20205;-61
2021/03/10 12:31:54;;;;;;;28.37;19.03;;;10.10;99.90;;;;;;5002088;28;20221;-62
2021/03/10 12:34:21;;;;;;;27.67;19.03;;;10.00;99.90;;;;;;5001503;28;20285;-65
2021/03/10 12:36:47;;;;;;;29.33;19.60;;;10.00;99.90;;;;;;4999354;28;20576;-64
2021/03/10 12:39:14;;;;;;;28.73;19.80;;;10.10;99.90;;;;;;5000033;28;20617;-62